createdAt,value
2019-02-17T00:01:44.580Z,16.27
2019-02-17T00:04:47.235Z,16.77
2019-02-17T00:07:50.048Z,16.60
2019-02-17T00:10:52.785Z,16.00
2019-02-17T00:13:55.394Z,16.20
2019-02-17T00:16:57.931Z,15.70
2019-02-17T00:20:00.644Z,15.67
2019-02-17T00:23:03.305Z,15.60
2019-02-17T00:26:05.962Z,16.00
2019-02-17T00:29:08.494Z,17.03
2019-02-17T00:32:11.205Z,15.90
2019-02-17T00:35:13.884Z,15.90
2019-02-17T00:38:16.490Z,15.90
2019-02-17T00:41:19.153Z,15.40
2019-02-17T00:44:21.863Z,16.40
2019-02-17T00:47:24.551Z,16.10
2019-02-17T00:50:27.134Z,16.33
2019-02-17T00:53:29.789Z,16.27
2019-02-17T00:56:32.408Z,16.40
2019-02-17T00:59:35.003Z,16.80
2019-02-17T01:02:37.691Z,14.80
2019-02-17T01:05:40.332Z,15.80
2019-02-17T01:08:43.022Z,14.90
2019-02-17T01:11:45.703Z,15.57
2019-02-17T01:14:48.360Z,16.37
2019-02-17T01:17:50.964Z,17.30
2019-02-17T01:20:53.551Z,16.40
2019-02-17T01:23:56.241Z,15.13
2019-02-17T01:26:58.801Z,16.03
2019-02-17T01:30:01.375Z,15.63
2019-02-17T01:33:04.315Z,15.53
2019-02-17T01:36:06.984Z,16.07
2019-02-17T01:39:09.677Z,16.50
2019-02-17T01:42:12.215Z,16.07
2019-02-17T01:45:15.197Z,16.00
2019-02-17T01:48:17.911Z,16.33
2019-02-17T01:51:20.652Z,16.20
2019-02-17T01:54:23.355Z,17.83
2019-02-17T01:57:25.979Z,16.87
2019-02-17T02:00:31.763Z,16.70
2019-02-17T02:03:34.403Z,16.20
2019-02-17T02:06:37.038Z,17.10
2019-02-17T02:09:39.605Z,16.77
2019-02-17T02:12:43.992Z,15.90
2019-02-17T02:15:47.750Z,16.63
2019-02-17T02:18:50.403Z,16.80
2019-02-17T02:21:53.044Z,16.60
2019-02-17T02:24:55.606Z,15.53
2019-02-17T02:27:58.329Z,16.87
2019-02-17T02:31:00.924Z,16.17
2019-02-17T02:34:03.819Z,16.97
2019-02-17T02:37:06.498Z,16.50
2019-02-17T02:40:09.161Z,17.40
2019-02-17T02:43:11.958Z,17.47
2019-02-17T02:46:14.548Z,17.47
2019-02-17T02:49:17.244Z,17.83
2019-02-17T02:52:19.812Z,17.40
2019-02-17T02:55:22.598Z,17.80
2019-02-17T02:58:25.248Z,16.60
2019-02-17T03:01:29.696Z,17.30
2019-02-17T03:04:32.342Z,16.30
2019-02-17T03:07:35.039Z,16.47
2019-02-17T03:10:37.826Z,16.77
2019-02-17T03:13:40.457Z,18.30
2019-02-17T03:16:43.110Z,17.20
2019-02-17T03:19:45.870Z,15.47
2019-02-17T03:22:48.538Z,17.03
2019-02-17T03:25:51.144Z,17.40
2019-02-17T03:28:53.861Z,17.10
2019-02-17T03:31:56.498Z,16.87
2019-02-17T03:34:59.207Z,16.50
2019-02-17T03:38:03.996Z,18.03
2019-02-17T03:41:06.797Z,17.00
2019-02-17T03:44:09.442Z,17.70
2019-02-17T03:47:12.131Z,16.27
2019-02-17T03:50:14.821Z,17.70
2019-02-17T03:53:17.371Z,17.60
2019-02-17T03:56:19.977Z,16.77
2019-02-17T03:59:22.621Z,17.47
2019-02-17T04:02:25.176Z,17.40
2019-02-17T04:05:27.823Z,18.43
2019-02-17T04:08:30.584Z,17.50
2019-02-17T04:11:33.295Z,17.10
2019-02-17T04:14:35.875Z,16.97
2019-02-17T04:17:38.399Z,16.97
2019-02-17T04:20:41.057Z,16.17
2019-02-17T04:23:43.616Z,17.80
2019-02-17T04:26:46.145Z,16.57
2019-02-17T04:29:48.732Z,17.53
2019-02-17T04:32:51.415Z,17.07
2019-02-17T04:35:54.017Z,18.03
2019-02-17T04:38:56.746Z,17.73
2019-02-17T04:41:59.476Z,16.50
2019-02-17T04:45:04.415Z,16.37
2019-02-17T04:48:07.021Z,15.47
2019-02-17T04:51:11.377Z,17.40
2019-02-17T04:54:13.922Z,17.13
2019-02-17T04:57:16.689Z,16.67
2019-02-17T05:00:19.440Z,16.50
2019-02-17T05:03:34.551Z,16.23
2019-02-17T05:06:37.117Z,16.10
2019-02-17T05:09:39.730Z,17.07
2019-02-17T05:12:42.431Z,17.20
2019-02-17T05:15:48.023Z,16.70
2019-02-17T05:18:50.620Z,18.27
2019-02-17T05:21:53.351Z,17.13
2019-02-17T05:24:55.916Z,17.77
2019-02-17T05:27:58.610Z,16.80
2019-02-17T05:31:01.290Z,16.47
2019-02-17T05:34:03.930Z,16.90
2019-02-17T05:37:06.623Z,16.10
2019-02-17T05:40:09.463Z,16.00
2019-02-17T05:43:12.098Z,17.43
2019-02-17T05:46:14.696Z,16.80
2019-02-17T05:49:17.530Z,17.20
2019-02-17T05:52:20.250Z,16.90
2019-02-17T05:55:22.910Z,18.43
2019-02-17T05:58:25.667Z,18.67
2019-02-17T06:01:28.347Z,17.47
2019-02-17T06:04:30.899Z,17.00
2019-02-17T06:07:33.493Z,16.30
2019-02-17T06:10:36.051Z,17.17
2019-02-17T06:13:38.632Z,17.17
2019-02-17T06:16:41.335Z,17.17
2019-02-17T06:19:43.991Z,17.20
2019-02-17T06:22:47.805Z,17.03
2019-02-17T06:25:50.444Z,17.93
2019-02-17T06:28:54.312Z,18.00
2019-02-17T06:31:56.885Z,17.37
2019-02-17T06:34:59.461Z,15.73
2019-02-17T06:38:02.151Z,16.60
2019-02-17T06:41:04.944Z,16.10
2019-02-17T06:44:07.670Z,17.27
2019-02-17T06:47:18.211Z,17.80
2019-02-17T06:50:20.883Z,16.47
2019-02-17T06:53:23.460Z,17.90
2019-02-17T06:56:45.546Z,17.60
2019-02-17T06:59:48.300Z,17.40
2019-02-17T07:02:51.010Z,17.40
2019-02-17T07:06:12.943Z,18.87
2019-02-17T07:09:15.600Z,17.90
2019-02-17T07:12:18.163Z,18.00
2019-02-17T07:15:21.890Z,17.20
2019-02-17T07:18:24.540Z,17.93
2019-02-17T07:21:27.097Z,18.17
2019-02-17T07:24:29.847Z,17.43
2019-02-17T07:27:32.495Z,16.67
2019-02-17T07:30:35.091Z,17.73
2019-02-17T07:33:37.907Z,17.67
2019-02-17T07:36:40.628Z,18.62
2019-02-17T07:39:43.202Z,18.13
2019-02-17T07:42:45.738Z,18.00
2019-02-17T07:45:48.462Z,18.70
2019-02-17T07:48:51.096Z,17.73
2019-02-17T07:51:53.790Z,18.53
2019-02-17T07:54:56.506Z,17.70
2019-02-17T07:57:59.180Z,19.03
2019-02-17T08:01:01.787Z,18.77
2019-02-17T08:04:04.348Z,18.57
2019-02-17T08:07:07.473Z,19.20
2019-02-17T08:10:10.237Z,19.03
2019-02-17T08:13:12.801Z,18.07
2019-02-17T08:16:15.432Z,19.40
2019-02-17T08:19:18.031Z,19.13
2019-02-17T08:22:23.678Z,20.50
2019-02-17T08:25:26.260Z,20.20
2019-02-17T08:28:29.282Z,19.93
2019-02-17T08:31:32.092Z,19.10
2019-02-17T08:34:34.716Z,19.33
2019-02-17T08:37:37.427Z,18.47
2019-02-17T08:40:40.046Z,20.00
2019-02-17T08:43:42.664Z,20.00
2019-02-17T08:46:45.339Z,19.87
2019-02-17T08:49:48.092Z,19.60
2019-02-17T08:52:50.724Z,20.30
2019-02-17T08:55:53.420Z,20.40
2019-02-17T08:58:56.240Z,20.50
2019-02-17T09:02:05.538Z,18.83
2019-02-17T09:05:03.731Z,20.30
2019-02-17T09:08:06.491Z,20.03
2019-02-17T09:11:10.167Z,18.10
2019-02-17T09:14:12.806Z,19.00
2019-02-17T09:17:15.457Z,19.17
2019-02-17T09:20:18.002Z,19.20
2019-02-17T09:23:23.783Z,19.33
2019-02-17T09:26:26.511Z,19.87
2019-02-17T09:29:30.650Z,21.13
2019-02-17T09:32:33.266Z,20.10
2019-02-17T09:35:35.867Z,19.90
2019-02-17T09:38:38.470Z,21.00
2019-02-17T09:41:41.196Z,20.77
2019-02-17T09:44:44.001Z,20.40
2019-02-17T09:47:46.565Z,19.60
2019-02-17T09:50:49.136Z,21.60
2019-02-17T09:53:51.917Z,21.30
2019-02-17T09:56:55.491Z,20.00
2019-02-17T09:59:58.190Z,20.10
2019-02-17T10:03:00.783Z,21.20
2019-02-17T10:06:03.524Z,21.27
2019-02-17T10:09:06.225Z,21.40
2019-02-17T10:12:08.810Z,21.13
2019-02-17T10:15:12.111Z,19.83
2019-02-17T10:18:14.734Z,21.20
2019-02-17T10:21:17.392Z,20.83
2019-02-17T10:24:20.051Z,21.70
2019-02-17T10:27:22.739Z,21.00
2019-02-17T10:30:25.314Z,21.03
2019-02-17T10:33:27.866Z,20.80
2019-02-17T10:36:30.612Z,20.80
2019-02-17T10:39:34.230Z,21.57
2019-02-17T10:42:36.861Z,18.60
2019-02-17T10:45:39.556Z,21.00
2019-02-17T10:48:42.267Z,21.10
2019-02-17T10:51:44.916Z,20.40
2019-02-17T10:54:47.526Z,20.43
2019-02-17T10:57:50.200Z,20.53
2019-02-17T11:00:53.018Z,20.10
2019-02-17T11:04:07.446Z,19.17
2019-02-17T11:07:10.010Z,21.00
2019-02-17T11:10:12.862Z,20.87
2019-02-17T11:13:15.519Z,21.20
2019-02-17T11:16:18.114Z,19.63
2019-02-17T11:19:20.790Z,20.13
2019-02-17T11:22:23.541Z,19.87
2019-02-17T11:25:27.361Z,19.93
2019-02-17T11:28:30.040Z,19.30
2019-02-17T11:31:32.751Z,19.40
2019-02-17T11:34:35.427Z,20.57
2019-02-17T11:37:38.197Z,19.87
2019-02-17T11:40:40.904Z,20.00
2019-02-17T11:43:43.491Z,18.37
2019-02-17T11:46:46.264Z,18.27
2019-02-17T11:49:48.844Z,18.57
2019-02-17T11:52:51.444Z,17.20
2019-02-17T11:55:54.029Z,17.70
2019-02-17T11:58:56.726Z,18.07
2019-02-17T12:01:59.522Z,18.43
2019-02-17T12:05:02.185Z,16.67
2019-02-17T12:08:07.925Z,16.40
2019-02-17T12:11:10.599Z,17.90
2019-02-17T12:14:13.396Z,17.50
2019-02-17T12:17:16.235Z,18.43
2019-02-17T12:20:37.804Z,18.43
2019-02-17T12:23:43.550Z,17.10
2019-02-17T12:27:17.975Z,18.23
2019-02-17T12:30:22.485Z,18.53
2019-02-17T12:33:25.361Z,17.90
2019-02-17T12:36:28.344Z,19.00
2019-02-17T12:39:30.998Z,18.57
2019-02-17T12:42:33.750Z,18.30
2019-02-17T12:45:36.512Z,17.17
2019-02-17T12:48:39.797Z,18.00
2019-02-17T12:51:42.859Z,17.23
2019-02-17T12:54:45.496Z,16.97
2019-02-17T12:57:48.259Z,17.70
2019-02-17T13:00:51.030Z,17.93
2019-02-17T13:03:53.699Z,17.03
2019-02-17T13:06:56.394Z,17.77
2019-02-17T13:09:58.931Z,17.50
2019-02-17T13:13:01.550Z,18.13
2019-02-17T13:16:04.265Z,16.93
2019-02-17T13:19:07.111Z,18.17
2019-02-17T13:22:10.136Z,17.30
2019-02-17T13:25:12.914Z,17.37
2019-02-17T13:28:15.590Z,17.37
2019-02-17T13:31:18.360Z,17.77
2019-02-17T13:34:21.055Z,17.93
2019-02-17T13:37:23.668Z,17.17
2019-02-17T13:40:26.402Z,17.90
2019-02-17T13:43:29.112Z,17.13
2019-02-17T13:46:31.776Z,16.47
2019-02-17T13:49:34.376Z,16.97
2019-02-17T13:52:36.915Z,15.90
2019-02-17T13:55:42.005Z,15.93
2019-02-17T13:58:44.746Z,15.27
2019-02-17T14:01:47.385Z,15.50
2019-02-17T14:04:50.054Z,16.73
2019-02-17T14:07:52.643Z,15.30
2019-02-17T14:10:55.433Z,15.57
2019-02-17T14:13:58.253Z,15.00
2019-02-17T14:17:00.856Z,14.30
2019-02-17T14:20:03.965Z,15.07
2019-02-17T14:23:06.901Z,14.40
2019-02-17T14:26:09.636Z,15.83
2019-02-17T14:29:12.239Z,14.60
2019-02-17T14:32:15.124Z,15.10
2019-02-17T14:35:17.789Z,13.27
2019-02-17T14:38:20.440Z,14.83
2019-02-17T14:41:23.290Z,14.73
2019-02-17T14:44:25.874Z,14.10
2019-02-17T14:47:28.425Z,14.80
2019-02-17T14:50:31.091Z,15.37
2019-02-17T14:53:33.885Z,14.40
2019-02-17T14:56:39.695Z,14.43
2019-02-17T14:59:42.265Z,15.40
2019-02-17T15:02:47.272Z,14.97
2019-02-17T15:05:50.004Z,14.33
2019-02-17T15:08:54.735Z,16.17
2019-02-17T15:11:58.163Z,14.97
2019-02-17T15:15:00.994Z,14.23
2019-02-17T15:18:04.014Z,14.80
2019-02-17T15:21:06.689Z,15.30
2019-02-17T15:24:09.393Z,15.57
2019-02-17T15:27:11.967Z,14.67
2019-02-17T15:30:14.748Z,16.00
2019-02-17T15:33:17.339Z,15.43
2019-02-17T15:36:19.976Z,15.20
2019-02-17T15:39:22.574Z,15.00
2019-02-17T15:42:25.445Z,16.73
2019-02-17T15:45:28.085Z,15.60
2019-02-17T15:48:30.784Z,15.57
2019-02-17T15:51:33.449Z,16.43
2019-02-17T15:54:36.060Z,15.40
2019-02-17T15:57:38.719Z,15.90
2019-02-17T16:00:41.434Z,14.77
2019-02-17T16:03:45.037Z,14.43
2019-02-17T16:06:48.018Z,15.43
2019-02-17T16:09:50.823Z,16.00
2019-02-17T16:12:53.528Z,21.40
2019-02-17T16:15:56.309Z,18.33
2019-02-17T16:18:58.864Z,15.83
2019-02-17T16:22:01.435Z,14.70
2019-02-17T16:25:04.244Z,14.60
2019-02-17T16:28:06.994Z,14.10
2019-02-17T16:31:09.679Z,13.90
2019-02-17T16:34:12.208Z,14.57
2019-02-17T16:37:14.875Z,13.93
2019-02-17T16:40:17.497Z,13.37
2019-02-17T16:43:20.110Z,14.50
2019-02-17T16:46:22.735Z,14.73
2019-02-17T16:49:25.289Z,13.50
2019-02-17T16:52:28.127Z,14.00
2019-02-17T16:55:30.802Z,13.10
2019-02-17T16:58:33.482Z,13.87
2019-02-17T17:01:36.185Z,13.33
2019-02-17T17:04:47.880Z,13.00
2019-02-17T17:07:43.343Z,12.83
2019-02-17T17:10:46.112Z,13.57
2019-02-17T17:13:48.739Z,13.20
2019-02-17T17:16:51.428Z,13.97
2019-02-17T17:19:54.086Z,12.90
2019-02-17T17:22:56.673Z,13.23
2019-02-17T17:25:59.444Z,13.70
2019-02-17T17:29:03.077Z,13.90
2019-02-17T17:32:05.829Z,13.20
2019-02-17T17:35:09.019Z,15.17
2019-02-17T17:38:12.858Z,13.60
2019-02-17T17:41:15.637Z,13.53
2019-02-17T17:44:18.253Z,13.73
2019-02-17T17:47:21.020Z,13.60
2019-02-17T17:50:23.724Z,14.33
2019-02-17T17:53:26.357Z,13.30
2019-02-17T17:56:29.196Z,13.17
2019-02-17T17:59:31.863Z,13.67
2019-02-17T18:02:34.583Z,14.13
2019-02-17T18:05:37.404Z,13.53
2019-02-17T18:08:42.454Z,13.57
2019-02-17T18:11:45.123Z,13.80
2019-02-17T18:14:47.692Z,15.10
2019-02-17T18:17:54.596Z,12.43
2019-02-17T18:20:55.079Z,14.70
2019-02-17T18:23:57.633Z,14.60
2019-02-17T18:27:00.272Z,14.43
2019-02-17T18:30:03.048Z,14.10
2019-02-17T18:33:05.787Z,15.30
2019-02-17T18:36:08.474Z,14.00
2019-02-17T18:39:12.038Z,14.77
2019-02-17T18:42:14.847Z,13.90
2019-02-17T18:45:17.607Z,14.33
2019-02-17T18:48:20.340Z,13.40
2019-02-17T18:51:23.127Z,14.23
2019-02-17T18:54:25.930Z,15.37
2019-02-17T18:57:28.522Z,14.63
2019-02-17T19:00:32.657Z,15.17
2019-02-17T19:03:35.287Z,14.67
2019-02-17T19:06:37.998Z,15.00
2019-02-17T19:09:40.822Z,14.27
2019-02-17T19:12:43.400Z,14.93
2019-02-17T19:15:47.107Z,14.13
2019-02-17T19:18:50.857Z,14.77
2019-02-17T19:21:53.492Z,14.27
2019-02-17T19:24:56.174Z,15.07
2019-02-17T19:27:58.896Z,14.47
2019-02-17T19:31:01.838Z,14.40
2019-02-17T19:34:04.492Z,14.67
2019-02-17T19:37:07.149Z,15.27
2019-02-17T19:40:10.359Z,14.97
2019-02-17T19:43:13.078Z,14.40
2019-02-17T19:46:15.806Z,15.30
2019-02-17T19:49:18.453Z,14.87
2019-02-17T19:52:21.104Z,14.63
2019-02-17T19:55:23.811Z,13.90
2019-02-17T19:58:26.402Z,14.30
2019-02-17T20:01:29.241Z,15.73
2019-02-17T20:04:54.324Z,13.87
2019-02-17T20:07:57.043Z,15.17
2019-02-17T20:10:59.755Z,15.67
2019-02-17T20:14:02.562Z,14.40
2019-02-17T20:17:05.348Z,15.40
2019-02-17T20:20:07.985Z,15.23
2019-02-17T20:23:10.730Z,15.00
2019-02-17T20:26:13.453Z,15.63
2019-02-17T20:29:16.166Z,16.10
2019-02-17T20:32:18.853Z,14.60
2019-02-17T20:35:21.547Z,15.07
2019-02-17T20:38:24.269Z,14.77
2019-02-17T20:41:27.024Z,14.23
2019-02-17T20:44:29.612Z,14.40
2019-02-17T20:47:32.212Z,14.50
2019-02-17T20:50:34.785Z,14.33
2019-02-17T20:53:37.543Z,14.90
2019-02-17T20:56:40.176Z,13.93
2019-02-17T20:59:42.907Z,14.20
2019-02-17T21:02:45.738Z,14.10
2019-02-17T21:05:48.407Z,14.30
2019-02-17T21:08:51.058Z,14.60
2019-02-17T21:11:53.904Z,14.67
2019-02-17T21:14:57.939Z,14.77
2019-02-17T21:18:00.513Z,14.70
2019-02-17T21:21:03.228Z,14.43
2019-02-17T21:24:06.050Z,14.40
2019-02-17T21:27:08.803Z,13.87
2019-02-17T21:30:11.938Z,13.67
2019-02-17T21:33:14.623Z,13.13
2019-02-17T21:36:23.260Z,13.87
2019-02-17T21:39:21.753Z,14.10
2019-02-17T21:42:24.703Z,12.60
2019-02-17T21:45:28.231Z,13.47
2019-02-17T21:48:30.816Z,13.00
2019-02-17T21:51:33.461Z,12.73
2019-02-17T21:54:36.089Z,12.13
2019-02-17T21:57:38.779Z,12.23
2019-02-17T22:00:41.344Z,12.80
2019-02-17T22:03:43.871Z,12.60
2019-02-17T22:06:46.501Z,12.27
2019-02-17T22:09:50.981Z,11.80
2019-02-17T22:12:53.640Z,13.53
2019-02-17T22:15:56.325Z,11.70
2019-02-17T22:18:59.069Z,11.73
2019-02-17T22:22:01.700Z,13.33
2019-02-17T22:25:04.810Z,12.23
2019-02-17T22:28:07.527Z,11.37
2019-02-17T22:31:10.345Z,11.63
2019-02-17T22:34:13.043Z,12.23
2019-02-17T22:37:16.711Z,11.30
2019-02-17T22:40:19.615Z,12.00
2019-02-17T22:43:22.187Z,11.33
2019-02-17T22:46:24.768Z,11.77
2019-02-17T22:49:29.275Z,11.30
2019-02-17T22:52:31.850Z,11.13
2019-02-17T22:55:34.396Z,10.97
2019-02-17T22:58:36.970Z,11.40
2019-02-17T23:01:39.552Z,11.40
2019-02-17T23:04:42.116Z,11.23
2019-02-17T23:07:44.900Z,11.27
2019-02-17T23:10:47.517Z,11.20
2019-02-17T23:13:50.078Z,10.77
2019-02-17T23:16:52.713Z,11.10
2019-02-17T23:19:55.375Z,11.63
2019-02-17T23:22:58.157Z,10.77
2019-02-17T23:26:00.757Z,10.70
2019-02-17T23:29:03.404Z,12.03
2019-02-17T23:32:06.100Z,11.50
2019-02-17T23:35:08.765Z,11.53
2019-02-17T23:38:11.452Z,11.80
2019-02-17T23:41:14.093Z,12.00
2019-02-17T23:44:16.727Z,11.10
2019-02-17T23:47:19.266Z,11.40
2019-02-17T23:50:21.950Z,11.40
2019-02-17T23:53:24.800Z,11.80
2019-02-17T23:56:30.680Z,11.40
2019-02-17T23:59:33.360Z,12.50
